createdAt,value
2018-05-18T00:01:26.947Z,5.57
2018-05-18T00:03:55.421Z,7.83
2018-05-18T00:06:23.987Z,6.03
2018-05-18T00:08:52.452Z,6.40
2018-05-18T00:11:20.914Z,5.93
2018-05-18T00:13:49.376Z,5.90
2018-05-18T00:16:18.092Z,5.67
2018-05-18T00:18:46.599Z,5.57
2018-05-18T00:21:15.051Z,5.17
2018-05-18T00:23:43.507Z,6.13
2018-05-18T00:26:11.949Z,5.10
2018-05-18T00:28:40.450Z,6.33
2018-05-18T00:31:09.044Z,5.70
2018-05-18T00:33:37.512Z,6.23
2018-05-18T00:36:05.962Z,5.13
2018-05-18T00:38:34.459Z,5.17
2018-05-18T00:41:02.916Z,5.70
2018-05-18T00:43:31.392Z,5.67
2018-05-18T00:45:59.836Z,5.47
2018-05-18T00:48:28.300Z,5.70
2018-05-18T00:50:56.753Z,6.23
2018-05-18T00:53:25.207Z,5.10
2018-05-18T00:55:53.672Z,5.73
2018-05-18T00:58:22.125Z,5.40
2018-05-18T01:00:50.590Z,4.77
2018-05-18T01:03:19.043Z,4.77
2018-05-18T01:05:47.516Z,5.63
2018-05-18T01:08:15.973Z,5.73
2018-05-18T01:10:44.435Z,5.40
2018-05-18T01:13:12.884Z,4.93
2018-05-18T01:15:42.120Z,4.97
2018-05-18T01:18:10.583Z,5.43
2018-05-18T01:20:39.047Z,5.03
2018-05-18T01:23:08.258Z,5.17
2018-05-18T01:25:36.728Z,5.13
2018-05-18T01:28:04.839Z,4.90
2018-05-18T01:30:33.859Z,5.37
2018-05-18T01:33:02.341Z,4.93
2018-05-18T01:35:30.800Z,4.67
2018-05-18T01:37:59.243Z,5.43
2018-05-18T01:40:29.124Z,5.03
2018-05-18T01:42:57.563Z,6.13
2018-05-18T01:45:26.027Z,5.27
2018-05-18T01:47:54.480Z,6.20
2018-05-18T01:50:22.936Z,5.53
2018-05-18T01:52:51.401Z,5.20
2018-05-18T01:55:19.876Z,5.53
2018-05-18T01:57:48.380Z,4.70
2018-05-18T02:00:16.908Z,6.23
2018-05-18T02:02:45.351Z,5.53
2018-05-18T02:05:13.819Z,5.90
2018-05-18T02:07:42.268Z,5.03
2018-05-18T02:10:10.734Z,5.63
2018-05-18T02:12:39.944Z,5.20
2018-05-18T02:15:08.415Z,4.83
2018-05-18T02:17:36.895Z,4.67
2018-05-18T02:20:05.365Z,5.27
2018-05-18T02:22:33.816Z,4.83
2018-05-18T02:25:02.285Z,4.87
2018-05-18T02:27:30.732Z,5.03
2018-05-18T02:29:59.202Z,4.77
2018-05-18T02:32:27.359Z,4.70
2018-05-18T02:34:55.828Z,5.10
2018-05-18T02:37:24.277Z,5.60
2018-05-18T02:39:52.748Z,5.13
2018-05-18T02:42:21.196Z,4.77
2018-05-18T02:44:49.328Z,4.17
2018-05-18T02:47:17.436Z,4.97
2018-05-18T02:49:45.897Z,5.27
2018-05-18T02:52:14.411Z,4.87
2018-05-18T02:54:42.705Z,4.20
2018-05-18T02:57:12.396Z,4.13
2018-05-18T02:59:40.831Z,4.70
2018-05-18T03:02:09.296Z,4.40
2018-05-18T03:04:37.761Z,4.23
2018-05-18T03:07:06.971Z,4.10
2018-05-18T03:09:35.436Z,5.10
2018-05-18T03:12:04.216Z,4.47
2018-05-18T03:14:32.655Z,4.63
2018-05-18T03:17:01.112Z,5.67
2018-05-18T03:19:29.556Z,4.57
2018-05-18T03:21:59.242Z,4.70
2018-05-18T03:24:28.457Z,4.37
2018-05-18T03:26:56.916Z,5.27
2018-05-18T03:29:25.371Z,4.37
2018-05-18T03:31:53.831Z,4.00
2018-05-18T03:34:22.288Z,4.93
2018-05-18T03:36:50.759Z,4.90
2018-05-18T03:39:18.987Z,5.10
2018-05-18T03:41:47.452Z,3.53
2018-05-18T03:44:17.518Z,4.30
2018-05-18T03:46:45.979Z,4.20
2018-05-18T03:49:14.430Z,5.60
2018-05-18T03:51:43.663Z,4.20
2018-05-18T03:54:12.099Z,4.47
2018-05-18T03:56:40.555Z,4.43
2018-05-18T03:59:08.997Z,5.37
2018-05-18T04:01:48.667Z,5.40
2018-05-18T04:04:29.368Z,6.07
2018-05-18T04:07:08.778Z,3.97
2018-05-18T04:09:37.979Z,4.27
2018-05-18T04:12:08.448Z,4.30
2018-05-18T04:14:37.641Z,4.20
2018-05-18T04:17:06.879Z,4.10
2018-05-18T04:19:35.321Z,4.87
2018-05-18T04:22:03.809Z,5.03
2018-05-18T04:24:32.498Z,4.73
2018-05-18T04:27:00.991Z,4.70
2018-05-18T04:29:29.455Z,4.50
2018-05-18T04:31:57.919Z,4.03
2018-05-18T04:34:26.358Z,4.63
2018-05-18T04:36:54.831Z,4.23
2018-05-18T04:39:23.277Z,4.37
2018-05-18T04:41:51.791Z,4.67
2018-05-18T04:44:20.263Z,3.90
2018-05-18T04:46:48.725Z,4.53
2018-05-18T04:49:17.168Z,4.03
2018-05-18T04:51:45.680Z,3.93
2018-05-18T04:54:14.287Z,4.37
2018-05-18T04:56:44.059Z,4.67
2018-05-18T04:59:12.491Z,4.00
2018-05-18T05:01:40.997Z,5.00
2018-05-18T05:04:09.103Z,3.87
2018-05-18T05:06:37.567Z,4.30
2018-05-18T05:09:06.465Z,5.27
2018-05-18T05:11:34.948Z,4.20
2018-05-18T05:14:03.397Z,6.13
2018-05-18T05:16:31.877Z,3.60
2018-05-18T05:19:00.333Z,3.57
2018-05-18T05:21:28.805Z,4.33
2018-05-18T05:23:57.514Z,4.47
2018-05-18T05:26:25.979Z,4.47
2018-05-18T05:28:54.473Z,4.40
2018-05-18T05:31:22.976Z,4.50
2018-05-18T05:33:51.092Z,5.13
2018-05-18T05:36:19.562Z,4.73
2018-05-18T05:38:48.054Z,5.03
2018-05-18T05:41:16.533Z,4.63
2018-05-18T05:43:44.974Z,5.40
2018-05-18T05:46:13.459Z,5.43
2018-05-18T05:48:43.534Z,5.00
2018-05-18T05:51:13.167Z,5.67
2018-05-18T05:53:42.385Z,4.20
2018-05-18T05:56:11.688Z,4.63
2018-05-18T05:58:40.219Z,4.67
2018-05-18T06:01:08.721Z,4.57
2018-05-18T06:03:37.183Z,4.67
2018-05-18T06:06:05.648Z,4.20
2018-05-18T06:08:34.129Z,5.70
2018-05-18T06:11:02.593Z,6.17
2018-05-18T06:13:30.848Z,4.43
2018-05-18T06:15:59.297Z,5.37
2018-05-18T06:18:27.763Z,5.00
2018-05-18T06:20:56.228Z,6.00
2018-05-18T06:23:24.691Z,4.87
2018-05-18T06:25:52.811Z,5.90
2018-05-18T06:28:22.124Z,4.77
2018-05-18T06:30:50.796Z,4.87
2018-05-18T06:33:19.271Z,4.90
2018-05-18T06:35:47.999Z,5.87
2018-05-18T06:38:16.471Z,5.57
2018-05-18T06:40:44.977Z,4.83
2018-05-18T06:43:13.674Z,5.50
2018-05-18T06:45:42.127Z,4.80
2018-05-18T06:48:10.591Z,4.90
2018-05-18T06:50:39.351Z,5.77
2018-05-18T06:55:41.843Z,5.13
2018-05-18T06:58:10.316Z,5.50
2018-05-18T07:00:38.761Z,5.50
2018-05-18T07:03:07.992Z,5.57
2018-05-18T07:05:36.440Z,4.93
2018-05-18T07:08:05.342Z,5.43
2018-05-18T07:10:33.845Z,5.03
2018-05-18T07:13:02.492Z,5.97
2018-05-18T07:15:30.948Z,5.30
2018-05-18T07:17:59.407Z,4.80
2018-05-18T07:20:27.857Z,5.83
2018-05-18T07:22:56.353Z,5.57
2018-05-18T07:25:24.975Z,5.07
2018-05-18T07:27:53.767Z,5.70
2018-05-18T07:30:22.980Z,6.23
2018-05-18T07:32:51.441Z,5.33
2018-05-18T07:35:19.887Z,5.43
2018-05-18T07:37:48.350Z,5.63
2018-05-18T07:40:16.795Z,5.77
2018-05-18T07:42:45.272Z,4.93
2018-05-18T07:45:13.759Z,6.57
2018-05-18T07:47:42.387Z,5.07
2018-05-18T07:50:10.849Z,5.73
2018-05-18T07:52:40.420Z,5.73
2018-05-18T07:55:09.261Z,5.03
2018-05-18T07:57:37.728Z,6.23
2018-05-18T08:00:05.508Z,5.77
2018-05-18T08:02:33.978Z,5.83
2018-05-18T08:05:02.432Z,5.67
2018-05-18T08:07:30.891Z,5.77
2018-05-18T08:09:59.376Z,6.07
2018-05-18T08:12:27.827Z,5.87
2018-05-18T08:14:56.731Z,6.00
2018-05-18T08:17:26.103Z,5.30
2018-05-18T08:19:54.560Z,6.67
2018-05-18T08:22:23.009Z,5.27
2018-05-18T08:24:51.664Z,5.33
2018-05-18T08:27:24.117Z,6.40
2018-05-18T08:29:52.585Z,5.97
2018-05-18T08:32:21.081Z,4.93
2018-05-18T08:34:49.553Z,5.13
2018-05-18T08:37:18.005Z,5.77
2018-05-18T08:39:46.474Z,5.97
2018-05-18T08:42:14.914Z,5.83
2018-05-18T08:44:43.396Z,5.80
2018-05-18T08:47:12.631Z,7.13
2018-05-18T08:49:41.099Z,5.97
2018-05-18T08:52:10.303Z,5.47
2018-05-18T08:54:39.529Z,5.90
2018-05-18T08:57:07.981Z,5.90
2018-05-18T08:59:37.214Z,5.60
2018-05-18T09:02:05.659Z,6.20
2018-05-18T09:04:34.888Z,5.43
2018-05-18T09:07:03.340Z,5.93
2018-05-18T09:09:32.576Z,4.80
2018-05-18T09:12:01.010Z,5.67
2018-05-18T09:14:30.307Z,5.63
2018-05-18T09:16:58.759Z,5.57
2018-05-18T09:19:28.241Z,6.77
2018-05-18T09:21:56.677Z,5.67
2018-05-18T09:24:25.136Z,5.53
2018-05-18T09:26:53.895Z,5.93
2018-05-18T09:29:22.367Z,7.00
2018-05-18T09:31:50.812Z,5.83
2018-05-18T09:34:19.309Z,5.70
2018-05-18T09:36:47.935Z,5.60
2018-05-18T09:39:17.419Z,6.30
2018-05-18T09:41:45.871Z,5.80
2018-05-18T09:44:14.347Z,5.03
2018-05-18T09:46:42.805Z,5.47
2018-05-18T09:49:11.266Z,5.77
2018-05-18T09:51:39.709Z,6.20
2018-05-18T09:54:08.281Z,5.93
2018-05-18T09:56:36.827Z,6.03
2018-05-18T09:59:05.283Z,5.60
2018-05-18T10:01:35.046Z,6.10
2018-05-18T10:04:03.508Z,6.67
2018-05-18T10:06:31.970Z,6.10
2018-05-18T10:09:00.438Z,5.27
2018-05-18T10:11:28.895Z,5.10
2018-05-18T10:13:57.368Z,5.97
2018-05-18T10:16:26.360Z,6.03
2018-05-18T10:18:54.842Z,5.53
2018-05-18T10:21:23.289Z,6.27
2018-05-18T10:23:51.735Z,5.83
2018-05-18T10:26:20.218Z,5.50
2018-05-18T10:28:48.703Z,6.57
2018-05-18T10:31:17.167Z,5.70
2018-05-18T10:33:46.380Z,5.70
2018-05-18T10:36:14.843Z,5.07
2018-05-18T10:38:43.291Z,5.50
2018-05-18T10:41:11.755Z,15.33
2018-05-18T10:43:40.220Z,12.27
2018-05-18T10:46:08.691Z,7.40
2018-05-18T10:48:37.144Z,17.30
2018-05-18T10:51:05.383Z,7.50
2018-05-18T10:53:33.838Z,4.97
2018-05-18T10:56:02.310Z,6.17
2018-05-18T10:58:30.801Z,5.77
2018-05-18T11:00:59.413Z,5.33
2018-05-18T11:03:29.071Z,5.43
2018-05-18T11:05:57.549Z,5.83
2018-05-18T11:08:25.999Z,5.23
2018-05-18T11:10:54.470Z,5.50
2018-05-18T11:13:22.919Z,5.57
2018-05-18T11:15:51.383Z,6.13
2018-05-18T11:18:20.599Z,5.77
2018-05-18T11:20:49.075Z,5.30
2018-05-18T11:23:17.525Z,6.27
2018-05-18T11:25:46.000Z,4.97
2018-05-18T11:28:14.443Z,6.97
2018-05-18T11:30:42.917Z,5.17
2018-05-18T11:33:11.680Z,6.28
2018-05-18T11:35:41.686Z,6.17
2018-05-18T11:38:10.135Z,6.60
2018-05-18T11:40:38.604Z,5.83
2018-05-18T11:43:07.124Z,6.37
2018-05-18T11:45:36.476Z,6.10
2018-05-18T11:48:04.939Z,6.17
2018-05-18T11:50:33.419Z,5.50
2018-05-18T11:53:01.869Z,6.10
2018-05-18T11:55:30.340Z,8.00
2018-05-18T11:57:58.784Z,5.77
2018-05-18T12:00:27.248Z,6.07
2018-05-18T12:02:55.739Z,6.97
2018-05-18T12:05:24.375Z,6.50
2018-05-18T12:07:52.830Z,6.60
2018-05-18T12:10:21.296Z,6.90
2018-05-18T12:12:49.734Z,6.10
2018-05-18T12:15:18.200Z,5.77
2018-05-18T12:17:46.651Z,5.93
2018-05-18T12:20:15.123Z,7.63
2018-05-18T12:22:43.564Z,6.10
2018-05-18T12:25:12.024Z,6.67
2018-05-18T12:27:40.463Z,7.60
2018-05-18T12:30:08.930Z,7.63
2018-05-18T12:32:38.160Z,8.53
2018-05-18T12:35:06.625Z,8.13
2018-05-18T12:37:35.076Z,7.37
2018-05-18T12:40:03.525Z,7.53
2018-05-18T12:42:31.997Z,7.33
2018-05-18T12:45:00.439Z,7.97
2018-05-18T12:47:29.027Z,7.67
2018-05-18T12:49:57.475Z,6.70
2018-05-18T12:52:25.961Z,6.97
2018-05-18T12:54:54.414Z,6.47
2018-05-18T12:57:23.653Z,7.47
2018-05-18T12:59:52.100Z,7.30
2018-05-18T13:02:20.568Z,10.33
2018-05-18T13:04:49.024Z,7.70
2018-05-18T13:07:17.492Z,7.13
2018-05-18T13:09:45.940Z,7.20
2018-05-18T13:12:14.423Z,8.33
2018-05-18T13:14:42.875Z,6.83
2018-05-18T13:17:11.344Z,6.80
2018-05-18T13:19:39.799Z,7.40
2018-05-18T13:22:08.277Z,9.13
2018-05-18T13:24:36.723Z,6.77
2018-05-18T13:27:06.124Z,9.90
2018-05-18T13:29:34.567Z,7.60
2018-05-18T13:32:03.040Z,7.43
2018-05-18T13:34:31.492Z,7.73
2018-05-18T13:36:59.963Z,6.80
2018-05-18T13:39:28.417Z,7.37
2018-05-18T13:41:56.888Z,6.97
2018-05-18T13:44:25.335Z,7.07
2018-05-18T13:46:54.760Z,6.77
2018-05-18T13:49:23.207Z,7.33
2018-05-18T13:51:51.784Z,6.97
2018-05-18T13:54:20.331Z,7.00
2018-05-18T13:56:48.802Z,7.43
2018-05-18T13:59:17.238Z,6.07
2018-05-18T14:01:45.715Z,7.33
2018-05-18T14:04:14.165Z,7.37
2018-05-18T14:06:42.632Z,7.13
2018-05-18T14:09:11.071Z,7.80
2018-05-18T14:11:39.536Z,6.83
2018-05-18T14:14:08.004Z,7.10
2018-05-18T14:16:36.471Z,6.97
2018-05-18T14:19:04.919Z,7.37
2018-05-18T14:21:33.397Z,8.30
2018-05-18T14:24:01.845Z,6.97
2018-05-18T14:26:31.186Z,6.83
2018-05-18T14:28:59.735Z,7.17
2018-05-18T14:31:28.231Z,7.20
2018-05-18T14:33:56.683Z,6.30
2018-05-18T14:36:25.147Z,6.83
2018-05-18T14:38:53.600Z,6.07
2018-05-18T14:41:22.052Z,7.57
2018-05-18T14:43:51.521Z,6.43
2018-05-18T14:46:20.111Z,6.87
2018-05-18T14:48:48.547Z,6.73
2018-05-18T14:51:17.002Z,6.80
2018-05-18T14:53:45.667Z,6.13
2018-05-18T14:56:14.496Z,7.10
2018-05-18T14:58:43.021Z,6.80
2018-05-18T15:01:11.473Z,7.77
2018-05-18T15:03:39.958Z,6.67
2018-05-18T15:06:08.407Z,6.43
2018-05-18T15:08:36.879Z,6.60
2018-05-18T15:11:05.377Z,6.30
2018-05-18T15:13:33.979Z,7.70
2018-05-18T15:16:03.203Z,7.00
2018-05-18T15:18:31.687Z,6.63
2018-05-18T15:21:00.148Z,6.87
2018-05-18T15:23:28.638Z,6.30
2018-05-18T15:25:57.092Z,6.30
2018-05-18T15:28:25.561Z,7.67
2018-05-18T15:30:54.007Z,6.43
2018-05-18T15:33:22.468Z,6.67
2018-05-18T15:35:50.920Z,7.03
2018-05-18T15:38:19.401Z,6.70
2018-05-18T15:40:47.857Z,8.37
2018-05-18T15:43:17.044Z,6.07
2018-05-18T15:45:45.500Z,6.30
2018-05-18T15:48:14.168Z,7.07
2018-05-18T15:50:43.394Z,6.70
2018-05-18T15:53:11.869Z,6.77
2018-05-18T15:55:40.307Z,5.90
2018-05-18T15:58:08.785Z,6.47
2018-05-18T16:00:37.243Z,7.10
2018-05-18T16:03:05.704Z,6.30
2018-05-18T16:05:34.148Z,7.73
2018-05-18T16:08:02.606Z,7.20
2018-05-18T16:10:31.054Z,6.97
2018-05-18T16:12:59.636Z,7.50
2018-05-18T16:15:28.175Z,6.37
2018-05-18T16:17:56.647Z,7.10
2018-05-18T16:20:25.107Z,6.73
2018-05-18T16:22:53.569Z,7.13
2018-05-18T16:25:22.020Z,7.30
2018-05-18T16:27:50.558Z,7.07
2018-05-18T16:30:19.143Z,7.17
2018-05-18T16:32:47.623Z,7.17
2018-05-18T16:35:16.129Z,6.87
2018-05-18T16:37:44.595Z,6.50
2018-05-18T16:40:13.138Z,7.17
2018-05-18T16:42:41.692Z,6.40
2018-05-18T16:45:10.147Z,7.73
2018-05-18T16:47:38.607Z,7.90
2018-05-18T16:50:07.052Z,6.47
2018-05-18T16:52:35.499Z,7.70
2018-05-18T16:55:03.635Z,7.17
2018-05-18T16:57:32.083Z,7.37
2018-05-18T17:00:00.548Z,7.67
2018-05-18T17:02:29.018Z,7.97
2018-05-18T17:04:57.140Z,7.30
2018-05-18T17:07:25.584Z,7.27
2018-05-18T17:09:54.815Z,7.30
2018-05-18T17:12:23.356Z,7.53
2018-05-18T17:14:51.931Z,6.60
2018-05-18T17:17:20.377Z,5.93
2018-05-18T17:19:48.914Z,6.77
2018-05-18T17:22:17.516Z,7.33
2018-05-18T17:24:46.605Z,7.83
2018-05-18T17:27:15.057Z,7.37
2018-05-18T17:29:43.532Z,6.63
2018-05-18T17:32:11.980Z,6.73
2018-05-18T17:34:40.447Z,6.53
2018-05-18T17:37:08.908Z,6.43
2018-05-18T17:39:38.143Z,6.70
2018-05-18T17:42:06.594Z,7.43
2018-05-18T17:44:35.065Z,7.43
2018-05-18T17:47:03.288Z,6.57
2018-05-18T17:49:31.535Z,7.20
2018-05-18T17:51:59.652Z,7.97
2018-05-18T17:54:27.800Z,7.37
2018-05-18T17:56:56.419Z,6.43
2018-05-18T17:59:24.891Z,6.53
2018-05-18T18:01:53.331Z,7.07
2018-05-18T18:04:21.808Z,7.17
2018-05-18T18:06:50.260Z,6.33
2018-05-18T18:09:20.327Z,6.50
2018-05-18T18:11:50.184Z,6.97
2018-05-18T18:14:19.203Z,7.73
2018-05-18T18:16:47.632Z,8.73
2018-05-18T18:19:16.095Z,6.97
2018-05-18T18:21:44.541Z,6.87
2018-05-18T18:24:14.067Z,6.00
2018-05-18T18:26:44.477Z,6.63
2018-05-18T18:29:13.178Z,6.20
2018-05-18T18:31:42.952Z,5.77
2018-05-18T18:34:11.547Z,6.63
2018-05-18T18:36:40.818Z,7.27
2018-05-18T18:39:10.340Z,6.43
2018-05-18T18:41:39.812Z,6.27
2018-05-18T18:44:08.323Z,6.77
2018-05-18T18:46:37.799Z,5.90
2018-05-18T18:49:05.996Z,6.70
2018-05-18T18:51:35.032Z,6.27
2018-05-18T18:54:05.132Z,6.23
2018-05-18T18:56:33.803Z,5.27
2018-05-18T18:59:02.267Z,6.67
2018-05-18T19:01:30.979Z,6.17
2018-05-18T19:04:00.375Z,6.93
2018-05-18T19:06:30.834Z,6.10
2018-05-18T19:08:59.640Z,6.03
2018-05-18T19:11:29.839Z,8.07
2018-05-18T19:14:00.600Z,6.87
2018-05-18T19:16:31.064Z,6.27
2018-05-18T19:19:00.679Z,6.80
2018-05-18T19:21:29.746Z,6.80
2018-05-18T19:23:59.543Z,6.60
2018-05-18T19:26:28.587Z,6.53
2018-05-18T19:28:59.220Z,6.10
2018-05-18T19:31:28.487Z,6.30
2018-05-18T19:33:59.080Z,6.00
2018-05-18T19:36:27.595Z,6.40
2018-05-18T19:38:57.215Z,5.57
2018-05-18T19:41:26.827Z,6.20
2018-05-18T19:43:56.035Z,6.20
2018-05-18T19:46:25.819Z,6.23
2018-05-18T19:48:54.932Z,6.20
2018-05-18T19:51:25.274Z,5.90
2018-05-18T19:53:54.595Z,5.97
2018-05-18T19:56:24.188Z,6.27
2018-05-18T19:58:54.484Z,6.87
2018-05-18T20:01:23.559Z,6.53
2018-05-18T20:03:54.072Z,7.90
2018-05-18T20:06:23.321Z,6.00
2018-05-18T20:08:51.879Z,6.40
2018-05-18T20:11:21.851Z,6.50
2018-05-18T20:13:50.535Z,5.77
2018-05-18T20:16:18.752Z,6.30
2018-05-18T20:18:48.208Z,6.63
2018-05-18T20:21:17.895Z,6.07
2018-05-18T20:23:47.607Z,6.00
2018-05-18T20:26:18.271Z,6.43
2018-05-18T20:28:47.115Z,6.70
2018-05-18T20:31:15.278Z,6.07
2018-05-18T20:33:44.358Z,5.77
2018-05-18T20:36:12.860Z,6.60
2018-05-18T20:38:42.345Z,5.97
2018-05-18T20:41:11.691Z,6.13
2018-05-18T20:43:41.091Z,6.67
2018-05-18T20:46:09.519Z,7.13
2018-05-18T20:48:39.163Z,5.83
2018-05-18T20:51:07.696Z,6.50
2018-05-18T20:53:36.707Z,5.77
2018-05-18T20:56:05.103Z,6.63
2018-05-18T20:58:34.198Z,6.00
2018-05-18T21:01:04.324Z,6.77
2018-05-18T21:03:34.987Z,6.83
2018-05-18T21:06:03.652Z,7.63
2018-05-18T21:08:33.690Z,7.13
2018-05-18T21:11:02.462Z,6.30
2018-05-18T21:13:30.936Z,6.83
2018-05-18T21:15:59.414Z,7.10
2018-05-18T21:18:27.268Z,6.43
2018-05-18T21:20:55.744Z,6.53
2018-05-18T21:23:24.347Z,7.60
2018-05-18T21:25:53.331Z,7.33
2018-05-18T21:28:21.488Z,6.70
2018-05-18T21:30:50.946Z,7.17
2018-05-18T21:33:20.643Z,7.33
2018-05-18T21:35:49.747Z,7.13
2018-05-18T21:38:17.932Z,7.43
2018-05-18T21:40:47.816Z,7.57
2018-05-18T21:43:16.295Z,8.33
2018-05-18T21:45:44.799Z,7.07
2018-05-18T21:48:13.279Z,6.67
2018-05-18T21:50:41.995Z,7.90
2018-05-18T21:53:11.292Z,7.20
2018-05-18T21:55:41.911Z,8.83
2018-05-18T21:58:10.404Z,8.67
2018-05-18T22:00:38.531Z,7.17
2018-05-18T22:03:07.015Z,7.63
2018-05-18T22:05:35.740Z,7.40
2018-05-18T22:08:05.235Z,8.77
2018-05-18T22:10:33.775Z,8.53
2018-05-18T22:13:02.992Z,7.93
2018-05-18T22:15:31.552Z,8.57
2018-05-18T22:18:00.448Z,8.50
2018-05-18T22:20:29.551Z,8.27
2018-05-18T22:22:58.055Z,8.33
2018-05-18T22:25:26.247Z,9.03
2018-05-18T22:27:54.148Z,8.43
2018-05-18T22:30:25.348Z,8.90
2018-05-18T22:32:54.047Z,9.57
2018-05-18T22:35:23.967Z,8.40
2018-05-18T22:37:53.059Z,9.50
2018-05-18T22:40:22.637Z,8.63
2018-05-18T22:42:52.248Z,10.27
2018-05-18T22:45:21.045Z,8.63
2018-05-18T22:47:49.204Z,9.63
2018-05-18T22:50:17.384Z,9.13
2018-05-18T22:52:45.471Z,9.40
2018-05-18T22:55:15.697Z,8.67
2018-05-18T22:57:45.507Z,10.53
2018-05-18T23:00:30.266Z,9.77
2018-05-18T23:03:00.010Z,9.67
2018-05-18T23:05:28.899Z,10.33
2018-05-18T23:07:56.791Z,9.13
2018-05-18T23:10:27.952Z,9.67
2018-05-18T23:12:58.192Z,9.30
2018-05-18T23:15:28.335Z,9.07
2018-05-18T23:18:01.134Z,9.90
2018-05-18T23:20:31.752Z,9.97
2018-05-18T23:23:01.567Z,10.00
2018-05-18T23:25:30.007Z,9.57
2018-05-18T23:27:59.515Z,9.97
2018-05-18T23:30:31.806Z,10.17
2018-05-18T23:33:00.344Z,10.90
2018-05-18T23:35:29.172Z,10.57
2018-05-18T23:37:57.636Z,11.23
2018-05-18T23:40:26.171Z,10.23
2018-05-18T23:42:54.996Z,11.30
2018-05-18T23:45:22.879Z,11.80
2018-05-18T23:47:52.283Z,11.73
2018-05-18T23:50:20.495Z,11.77
2018-05-18T23:52:49.987Z,12.27
2018-05-18T23:55:18.443Z,11.20
2018-05-18T23:57:46.624Z,12.03
